ADDS METAR Data INFO
IDs: Format: Raw Decoded Include TAF

Data at: 2100 UTC 19 Jul 2018

KPSK 192055Z AUTO 17005KT 10SM BKN050 27/14 A3013 RMK AO2 T02700142
KPSK 192035Z AUTO 14006KT 10SM SCT045 OVC050 26/14 A3014 RMK AO2 T02620144
KPSK 192015Z AUTO 15003KT 10SM BKN048 OVC050 26/15 A3014 RMK AO2 T02630146
KPSK 191955Z AUTO 16005KT 10SM OVC048 26/14 A3015 RMK AO2 T02600142
KPSK 191935Z AUTO 13006KT 10SM BKN046 26/14 A3015 RMK AO2 T02630141
KPSK 191915Z AUTO 15005KT 10SM SCT048 BKN060 27/14 A3015 RMK AO2 T02690141
KPSK 191855Z AUTO 16008KT 10SM OVC050 27/14 A3015 RMK AO2 T02710139
KPSK 191835Z AUTO 15004KT 10SM OVC050 27/13 A3015 RMK AO2 T02700129
KPSK 191815Z AUTO 09008KT 10SM OVC050 27/13 A3015 RMK AO2 T02720131
KPSK 191755Z AUTO 15005KT 10SM OVC050 26/13 A3016 RMK AO2 T02620126 10268 20169
KPSK 191735Z AUTO 11006KT 10SM OVC050 26/13 A3016 RMK AO2 T02630125
KPSK 191715Z AUTO 17008KT 10SM OVC050 26/13 A3017 RMK AO2 T02610126
KPSK 191655Z AUTO 14005KT 10SM OVC055 26/12 A3017 RMK AO2 T02600122
KPSK 191635Z AUTO 13008KT 10SM OVC049 26/12 A3017 RMK AO2 T02620122
KPSK 191615Z AUTO 12004KT 10SM OVC047 26/12 A3017 RMK AO2 T02580118
KPSK 191555Z AUTO 12008KT 10SM BKN047 OVC050 26/12 A3017 RMK AO2 T02580121
KPSK 191535Z AUTO 16008KT 10SM BKN050 OVC055 25/12 A3017 RMK AO2 T02530122
KPSK 191515Z AUTO 12008KT 10SM SCT047 BKN050 25/12 A3017 RMK AO2 T02530123
KPSK 191455Z AUTO 12009KT 10SM SCT050 25/12 A3017 RMK AO2 T02520123
KPSK 191435Z AUTO 11007KT 10SM SCT055 24/14 A3017 RMK AO2 T02430136
KPSK 191415Z AUTO 09005KT 10SM CLR 23/14 A3017 RMK AO2 T02320139
KPSK 191355Z AUTO 09007KT 060V120 10SM SCT065 23/14 A3017 RMK AO2 T02250140
KPSK 191335Z AUTO 09004KT 10SM CLR 22/14 A3018 RMK AO2 T02150140
KPSK 191315Z AUTO 06005KT 10SM SCT050 SCT065 21/14 A3018 RMK AO2 T02080143
KPSK 191255Z AUTO 09003KT 10SM CLR 20/14 A3017 RMK AO2 T01990142
KPSK 191235Z AUTO 00000KT 10SM SCT048 SCT065 19/14 A3017 RMK AO2 T01890142
KPSK 191215Z AUTO 00000KT 10SM SCT048 BKN065 18/14 A3017 RMK AO2 T01790144
KPSK 191155Z AUTO 00000KT 10SM BKN048 BKN065 17/15 A3016 RMK AO2 T01670145 10167 20138
KPSK 191135Z AUTO 00000KT 10SM BKN048 16/14 A3016 RMK AO2 T01590143
KPSK 191115Z AUTO 00000KT 10SM SCT048 SCT065 15/13 A3016 RMK AO2 T01480133
KPSK 191055Z AUTO 00000KT 10SM SCT070 15/13 A3015 RMK AO2 T01470133
KPSK 191035Z AUTO 00000KT 10SM SCT070 14/13 A3015 RMK AO2 T01390126
KPSK 191015Z AUTO 00000KT 10SM SCT070 14/13 A3014 RMK AO2 T01410128
KPSK 190955Z AUTO 00000KT 10SM SCT070 14/13 A3013 RMK AO2 T01400126
KPSK 190935Z AUTO 00000KT 4SM BR SCT060 14/13 A3013 RMK AO2 T01420130
KPSK 190915Z AUTO 00000KT 10SM BKN060 14/13 A3013 RMK AO2 T01410126
KPSK 190855Z AUTO 00000KT 10SM SCT065 14/13 A3013 RMK AO2 T01430126
KPSK 190835Z AUTO 00000KT 10SM CLR 14/13 A3013 RMK AO2 T01440126
KPSK 190815Z AUTO 00000KT 10SM SCT060 15/13 A3012 RMK AO2 T01490127
KPSK 190755Z AUTO 00000KT 10SM SCT060 16/13 A3012 RMK AO2 T01580131
KPSK 190735Z AUTO 00000KT 10SM SCT060 16/13 A3012 RMK AO2 T01550132
KPSK 190715Z AUTO 00000KT 10SM BKN060 16/13 A3012 RMK AO2 T01570132
KPSK 190655Z AUTO 00000KT 10SM BKN060 16/13 A3013 RMK AO2 T01630133
KPSK 190635Z AUTO 00000KT 10SM BKN060 16/13 A3013 RMK AO2 T01560133
KPSK 190615Z AUTO 26003KT 10SM SCT060 15/13 A3013 RMK AO2 T01510127
KPSK 190555Z AUTO 00000KT 10SM CLR 16/13 A3013 RMK AO2 T01590126 10250 20159 402760159
KPSK 190535Z AUTO 00000KT 10SM CLR 17/13 A3013 RMK AO2 T01720129
KPSK 190515Z AUTO 00000KT 10SM CLR 17/13 A3013 RMK AO2 T01720130
KPSK 190455Z AUTO 00000KT 10SM CLR 18/13 A3012 RMK AO2 T01790129
KPSK 190435Z AUTO 00000KT 10SM CLR 19/13 A3012 RMK AO2 T01850125
KPSK 190415Z AUTO 00000KT 10SM CLR 19/13 A3012 RMK AO2 T01850128
KPSK 190355Z AUTO 00000KT 10SM CLR 19/12 A3011 RMK AO2 T01930120
KPSK 190335Z AUTO 00000KT 10SM CLR 20/12 A3011 RMK AO2 T02020117
KPSK 190315Z AUTO 00000KT 10SM CLR 20/12 A3011 RMK AO2 T01970121
KPSK 190255Z AUTO 33003KT 10SM CLR 20/12 A3011 RMK AO2 T02040120
KPSK 190235Z AUTO 34004KT 10SM CLR 21/12 A3011 RMK AO2 T02060120
KPSK 190215Z AUTO 34003KT 10SM CLR 21/12 A3010 RMK AO2 T02080120
KPSK 190155Z AUTO 00000KT 10SM CLR 22/12 A3010 RMK AO2 T02190115
KPSK 190135Z AUTO 35003KT 10SM CLR 23/11 A3009 RMK AO2 T02250112
KPSK 190115Z AUTO 35004KT 10SM CLR 23/11 A3009 RMK AO2 T02260111
KPSK 190055Z AUTO 35004KT 10SM CLR 23/11 A3008 RMK AO2 T02300108
KPSK 190035Z AUTO 35004KT 10SM CLR 24/11 A3008 RMK AO2 T02370105
KPSK 190015Z AUTO 35003KT 10SM CLR 25/10 A3008 RMK AO2 T02450102
KPSK 182355Z AUTO 35004KT 10SM CLR 25/10 A3007 RMK AO2 T02500104 10276 20250
KPSK 182335Z AUTO 34006KT 10SM CLR 26/10 A3007 RMK AO2 T02560101
KPSK 182315Z AUTO 35005KT 10SM CLR 26/10 A3006 RMK AO2 T02600100
KPSK 182255Z AUTO 34005KT 10SM CLR 26/10 A3006 RMK AO2 T02630099
KPSK 182235Z AUTO 33006KT 10SM CLR 27/10 A3006 RMK AO2 T02660098
KPSK 182215Z AUTO 33005KT 10SM CLR 27/10 A3006 RMK AO2 T02710099
KPSK 182155Z AUTO 34005KT 10SM CLR 27/10 A3006 RMK AO2 T02690096
KPSK 182135Z AUTO 02006KT 10SM CLR 27/10 A3006 RMK AO2 T02690100
KPSK 182115Z AUTO 33008KT 10SM CLR 27/10 A3006 RMK AO2 T02720100
KPSK 182055Z AUTO 32008KT 10SM CLR 28/11 A3007 RMK AO2 T02750106
KPSK 182035Z AUTO 32009KT 10SM CLR 28/10 A3007 RMK AO2 T02750103
KPSK 182015Z AUTO 31005KT 10SM SCT070 27/10 A3007 RMK AO2 T02730100
KPSK 181955Z AUTO 32005KT 10SM SCT060 27/11 A3007 RMK AO2 T02720105
KPSK 181935Z AUTO 34005KT 10SM BKN060 27/10 A3008 RMK AO2 T02660103
KPSK 181915Z AUTO 33008KT 10SM BKN060 27/10 A3008 RMK AO2 T02650100
KPSK 181855Z AUTO 34008KT 310V010 10SM SCT060 27/10 A3008 RMK AO2 T02710101
KPSK 181835Z AUTO 01006KT 10SM BKN060 27/12 A3008 RMK AO2 T02690115
KPSK 181815Z AUTO 35006KT 10SM CLR 27/11 A3009 RMK AO2 T02660110
KPSK 181755Z AUTO 02003KT 10SM SCT050 SCT055 26/12 A3009 RMK AO2 T02640121 10265 20210
KPSK 181735Z AUTO 34004KT 10SM SCT050 26/13 A3009 RMK AO2 T02580127
KPSK 181715Z AUTO 01005KT 10SM SCT046 SCT050 26/12 A3010 RMK AO2 T02620120
KPSK 181655Z AUTO 01004KT 10SM SCT046 SCT050 26/13 A3010 RMK AO2 T02590129
KPSK 181635Z AUTO 03007KT 10SM CLR 26/12 A3010 RMK AO2 T02550124
KPSK 181615Z AUTO 33007KT 10SM SCT044 26/14 A3010 RMK AO2 T02580136
KPSK 181555Z AUTO 33006KT 10SM SCT044 25/14 A3011 RMK AO2 T02500137
KPSK 181535Z AUTO 33007KT 10SM SCT040 25/14 A3011 RMK AO2 T02470136
KPSK 181515Z AUTO 36008KT 310V020 10SM SCT042 25/14 A3011 RMK AO2 T02470140
KPSK 181455Z AUTO 35006KT 10SM CLR 25/15 A3011 RMK AO2 T02450146
KPSK 181435Z AUTO 35007KT 310V010 10SM CLR 24/15 A3011 RMK AO2 T02410148
KPSK 181415Z AUTO 36007KT 300V030 10SM CLR 24/16 A3011 RMK AO2 T02400155
KPSK 181355Z AUTO 35007KT 310V020 10SM CLR 24/16 A3010 RMK AO2 T02360156
KPSK 181335Z AUTO 33007KT 10SM CLR 23/15 A3010 RMK AO2 T02330149
KPSK 181315Z AUTO 33006KT 10SM CLR 23/15 A3010 RMK AO2 T02300145
KPSK 181255Z AUTO 32004KT 10SM CLR 23/15 A3010 RMK AO2 T02270150
KPSK 181235Z AUTO 33003KT 10SM CLR 22/16 A3010 RMK AO2 T02210156
KPSK 181215Z AUTO 00000KT 10SM CLR 21/16 A3009 RMK AO2 T02130157
KPSK 181155Z AUTO 00000KT 10SM CLR 21/15 A3009 RMK AO2 70020 T02110153 10222 20178
KPSK 181135Z AUTO 00000KT 10SM CLR 20/16 A3008 RMK AO2 LTG DSNT S T02000155
KPSK 181115Z AUTO 00000KT 10SM CLR 19/16 A3007 RMK AO2 T01870157
KPSK 181055Z AUTO 31003KT 10SM CLR 18/15 A3006 RMK AO2 T01800150
KPSK 181035Z AUTO 00000KT 10SM CLR 19/15 A3006 RMK AO2 T01900148
KPSK 181015Z AUTO 35003KT 10SM CLR 20/15 A3006 RMK AO2 T02000148
KPSK 180955Z AUTO 35003KT 10SM CLR 21/15 A3006 RMK AO2 T02050150
KPSK 180935Z AUTO 32004KT 10SM CLR 20/16 A3005 RMK AO2 T02030155
KPSK 180915Z AUTO 32007KT 10SM CLR 21/16 A3004 RMK AO2 T02050160